Time;durP1;ratioP1;P1;durP2;ratioP2;P2;SDS_P1;SDS_P2;PMS_P1;PMS_P2;Temp;Humidity;BMP_temperature;BMP_pressure;BME280_temperature;BME280_humidity;BME280_pressure;Samples;Min_cycle;Max_cycle;Signal;HPM_P1;HPM_P2
2024/01/01 00:00:37;;;;;;;;;;;7.20;99.90;;;;;;5097771;27;20309;-80
2024/01/01 00:03:03;;;;;;;;;;;7.20;99.90;;;;;;5090246;27;19991;-81
2024/01/01 00:05:29;;;;;;;;;;;8.40;99.90;;;;;;5115317;27;19927;-81
2024/01/01 00:07:55;;;;;;;;;;;7.10;99.90;;;;;;5111981;27;19926;-81
2024/01/01 00:10:21;;;;;;;;;;;7.10;99.90;;;;;;5101398;27;19971;-81
2024/01/01 00:12:47;;;;;;;;;;;7.10;99.90;;;;;;5110921;27;20063;-81
2024/01/01 00:15:12;;;;;;;;;;;7.10;99.90;;;;;;5092959;27;19931;-82
2024/01/01 00:17:39;;;;;;;;;;;7.10;99.90;;;;;;5102501;27;20859;-81
2024/01/01 00:20:05;;;;;;;;;;;7.10;99.90;;;;;;5104899;27;19931;-81
2024/01/01 00:22:31;;;;;;;;;;;7.10;99.90;;;;;;5092941;27;19931;-80
2024/01/01 00:24:57;;;;;;;;;;;7.00;99.90;;;;;;5090001;27;20250;-83
2024/01/01 00:27:23;;;;;;;;;;;7.00;99.90;;;;;;5090765;27;19927;-80
2024/01/01 00:29:48;;;;;;;;;;;7.00;99.90;;;;;;5085502;27;19932;-81
2024/01/01 00:32:14;;;;;;;;;;;7.00;99.90;;;;;;5087657;27;20433;-80
2024/01/01 00:34:39;;;;;;;;;;;7.00;99.90;;;;;;5099392;27;20311;-80
2024/01/01 00:37:05;;;;;;;;;;;7.00;99.90;;;;;;5101490;27;20825;-83
2024/01/01 00:39:31;;;;;;;;;;;7.00;99.90;;;;;;5106638;27;19975;-84
2024/01/01 00:41:56;;;;;;;;;;;7.00;99.90;;;;;;5101749;27;20694;-82
2024/01/01 00:44:22;;;;;;;;;;;6.90;99.90;;;;;;5122163;27;20421;-82
2024/01/01 00:46:47;;;;;;;;;;;7.00;99.90;;;;;;5128808;27;19927;-82
2024/01/01 00:49:13;;;;;;;;;;;6.90;99.90;;;;;;5098560;27;20010;-81
2024/01/01 00:51:39;;;;;;;;;;;7.00;99.90;;;;;;5106300;27;19930;-83
2024/01/01 00:54:04;;;;;;;;;;;6.90;99.90;;;;;;5098565;27;20379;-83
2024/01/01 00:56:30;;;;;;;;;;;7.00;99.90;;;;;;5102094;27;20003;-81
2024/01/01 00:58:56;;;;;;;;;;;6.90;99.90;;;;;;5113029;27;19923;-82
2024/01/01 01:01:21;;;;;;;;;;;6.90;99.90;;;;;;5081346;27;20386;-80
2024/01/01 01:03:47;;;;;;;;;;;6.80;99.90;;;;;;5098411;27;20045;-82
2024/01/01 01:06:12;;;;;;;;;;;6.80;99.90;;;;;;5093246;27;20425;-80
2024/01/01 01:08:38;;;;;;;;;;;6.80;99.90;;;;;;5107005;27;19928;-80
2024/01/01 01:11:04;;;;;;;;;;;6.70;99.90;;;;;;5113346;27;19939;-84
2024/01/01 01:13:29;;;;;;;;;;;6.70;99.90;;;;;;5078561;27;20358;-80
2024/01/01 01:15:55;;;;;;;;;;;6.70;99.90;;;;;;5112849;27;20052;-85
2024/01/01 01:18:21;;;;;;;;;;;6.60;99.90;;;;;;5092937;27;19927;-82
2024/01/01 01:20:48;;;;;;;;;;;6.60;99.90;;;;;;5113849;27;19927;-82
2024/01/01 01:23:13;;;;;;;;;;;6.60;99.90;;;;;;5086063;27;19927;-84
2024/01/01 01:25:39;;;;;;;;;;;6.60;99.90;;;;;;5098052;27;19971;-83
2024/01/01 01:28:05;;;;;;;;;;;6.60;99.90;;;;;;5125897;27;19987;-83
2024/01/01 01:30:30;;;;;;;;;;;6.70;99.90;;;;;;5099325;27;19927;-85
2024/01/01 01:32:56;;;;;;;;;;;6.80;99.90;;;;;;5089648;27;20279;-81
2024/01/01 01:35:22;;;;;;;;;;;6.80;99.90;;;;;;5107220;27;19927;-83
2024/01/01 01:37:47;;;;;;;;;;;6.80;99.90;;;;;;5076826;27;20013;-82
2024/01/01 01:40:13;;;;;;;;;;;6.90;99.90;;;;;;5114393;27;20613;-82
2024/01/01 01:42:39;;;;;;;;;;;6.90;99.90;;;;;;5104846;27;19935;-83
2024/01/01 01:45:05;;;;;;;;;;;6.90;99.90;;;;;;5112317;27;19927;-82
2024/01/01 01:47:30;;;;;;;;;;;6.80;99.90;;;;;;5096453;27;19923;-82
2024/01/01 01:49:57;;;;;;;;;;;6.80;99.90;;;;;;5088385;27;19927;-81
2024/01/01 01:52:22;;;;;;;;;;;6.80;99.90;;;;;;5100637;27;19932;-82
2024/01/01 01:54:50;;;;;;;;;;;6.80;99.90;;;;;;5093058;27;19934;-80
2024/01/01 01:57:16;;;;;;;;;;;6.70;99.90;;;;;;5116580;27;19927;-81
2024/01/01 01:59:43;;;;;;;;;;;6.70;99.90;;;;;;5107474;27;19927;-83
2024/01/01 02:02:09;;;;;;;;;;;6.70;99.90;;;;;;5106015;27;19933;-84
2024/01/01 02:04:35;;;;;;;;;;;6.70;99.90;;;;;;5108764;27;19935;-82
2024/01/01 02:07:01;;;;;;;;;;;6.70;99.90;;;;;;5097596;27;19927;-82
2024/01/01 02:09:26;;;;;;;;;;;6.70;99.90;;;;;;5109468;27;20457;-81
2024/01/01 02:11:52;;;;;;;;;;;6.70;99.90;;;;;;5097762;27;19927;-82
2024/01/01 02:14:18;;;;;;;;;;;6.70;99.90;;;;;;5096771;27;19928;-81
2024/01/01 02:16:44;;;;;;;;;;;6.70;99.90;;;;;;5114201;27;20373;-81
2024/01/01 02:19:20;;;;;;;;;;;6.60;99.90;;;;;;5089935;27;19931;-82
2024/01/01 02:21:47;;;;;;;;;;;6.60;99.90;;;;;;5091204;27;19927;-82
2024/01/01 02:24:15;;;;;;;;;;;6.60;99.90;;;;;;5093975;27;19927;-80
2024/01/01 02:26:42;;;;;;;;;;;6.60;99.90;;;;;;5106330;27;20327;-81
2024/01/01 02:29:07;;;;;;;;;;;6.60;99.90;;;;;;5105395;27;19987;-79
2024/01/01 02:31:33;;;;;;;;;;;6.60;99.90;;;;;;5102222;27;20445;-80
2024/01/01 02:33:58;;;;;;;;;;;6.60;99.90;;;;;;5096434;27;19931;-82
2024/01/01 02:36:24;;;;;;;;;;;6.60;99.90;;;;;;5101945;27;20026;-81
2024/01/01 02:38:50;;;;;;;;;;;6.60;99.90;;;;;;5087568;27;20267;-81
2024/01/01 02:41:15;;;;;;;;;;;6.60;99.90;;;;;;5098135;27;19924;-81
2024/01/01 02:43:41;;;;;;;;;;;6.60;99.90;;;;;;5099671;27;20034;-80
2024/01/01 02:46:06;;;;;;;;;;;6.60;99.90;;;;;;5100858;27;20670;-80
2024/01/01 02:48:32;;;;;;;;;;;6.60;99.90;;;;;;5119252;27;19933;-81
2024/01/01 02:50:58;;;;;;;;;;;6.60;99.90;;;;;;5098849;27;19927;-80
2024/01/01 02:53:24;;;;;;;;;;;6.60;99.90;;;;;;5096903;27;20456;-83
2024/01/01 02:55:49;;;;;;;;;;;6.60;99.90;;;;;;5099279;27;20091;-83
2024/01/01 02:58:15;;;;;;;;;;;6.60;99.90;;;;;;5108790;27;20068;-81
2024/01/01 03:00:41;;;;;;;;;;;6.60;99.90;;;;;;5097523;27;19923;-83
2024/01/01 03:03:06;;;;;;;;;;;6.50;99.90;;;;;;5100434;27;19972;-84
2024/01/01 03:05:32;;;;;;;;;;;6.60;99.90;;;;;;5092697;27;19931;-83
2024/01/01 03:07:58;;;;;;;;;;;6.60;99.90;;;;;;5107297;27;20395;-82
2024/01/01 03:10:23;;;;;;;;;;;6.60;99.90;;;;;;5084492;27;20483;-82
2024/01/01 03:12:49;;;;;;;;;;;6.60;99.90;;;;;;5129403;27;20022;-83
2024/01/01 03:15:14;;;;;;;;;;;6.60;99.90;;;;;;5108339;27;20284;-82
2024/01/01 03:17:41;;;;;;;;;;;6.70;99.90;;;;;;5110901;27;19942;-84
2024/01/01 03:20:06;;;;;;;;;;;6.70;99.90;;;;;;5098201;27;19939;-81
2024/01/01 03:22:32;;;;;;;;;;;6.70;99.90;;;;;;5087029;27;19931;-82
2024/01/01 03:24:58;;;;;;;;;;;6.80;99.90;;;;;;5101459;27;20584;-82
2024/01/01 03:27:24;;;;;;;;;;;6.80;99.90;;;;;;5109656;27;20393;-81
2024/01/01 03:29:49;;;;;;;;;;;6.80;99.90;;;;;;5104807;27;20370;-83
2024/01/01 03:32:15;;;;;;;;;;;6.80;99.90;;;;;;5110517;27;19928;-82
2024/01/01 03:34:42;;;;;;;;;;;6.90;99.90;;;;;;5104512;27;21404;-82
2024/01/01 03:37:07;;;;;;;;;;;6.90;99.90;;;;;;5102444;27;19934;-81
2024/01/01 03:39:33;;;;;;;;;;;6.90;99.90;;;;;;5115921;27;19931;-82
2024/01/01 03:41:59;;;;;;;;;;;6.90;99.90;;;;;;5074826;27;20447;-82
2024/01/01 03:44:24;;;;;;;;;;;7.00;99.90;;;;;;5106665;27;19927;-83
2024/01/01 03:46:50;;;;;;;;;;;7.00;99.90;;;;;;5110347;27;20020;-83
2024/01/01 03:49:15;;;;;;;;;;;7.00;99.90;;;;;;5090406;27;19931;-81
2024/01/01 03:51:41;;;;;;;;;;;7.00;99.90;;;;;;5104084;27;19923;-83
2024/01/01 03:54:06;;;;;;;;;;;7.00;99.90;;;;;;5098438;27;19923;-83
2024/01/01 03:56:32;;;;;;;;;;;7.00;99.90;;;;;;5095851;27;19927;-83
2024/01/01 03:58:58;;;;;;;;;;;5.80;99.90;;;;;;5111463;27;19956;-83
2024/01/01 04:01:25;;;;;;;;;;;7.10;99.90;;;;;;5105220;27;19929;-82
2024/01/01 04:03:51;;;;;;;;;;;7.10;99.90;;;;;;5094624;27;20297;-82
2024/01/01 04:06:17;;;;;;;;;;;7.10;99.90;;;;;;5101520;27;19938;-82
2024/01/01 04:08:42;;;;;;;;;;;7.10;99.90;;;;;;5103181;27;19931;-82
2024/01/01 04:11:08;;;;;;;;;;;7.10;99.90;;;;;;5078287;27;19931;-81
2024/01/01 04:13:34;;;;;;;;;;;7.20;99.90;;;;;;5103129;27;19933;-81
2024/01/01 04:16:01;;;;;;;;;;;7.20;99.90;;;;;;5089524;27;19927;-83
2024/01/01 04:18:26;;;;;;;;;;;7.20;99.90;;;;;;5111863;27;19935;-81
2024/01/01 04:20:53;;;;;;;;;;;7.20;99.90;;;;;;5094527;27;19927;-83
2024/01/01 04:23:18;;;;;;;;;;;7.30;99.90;;;;;;5094442;27;19931;-83
2024/01/01 04:25:45;;;;;;;;;;;7.20;99.90;;;;;;5116104;27;19934;-81
2024/01/01 04:28:11;;;;;;;;;;;7.20;99.90;;;;;;5093927;27;19931;-83
2024/01/01 04:30:37;;;;;;;;;;;7.20;99.90;;;;;;5111596;27;20479;-80
2024/01/01 04:33:02;;;;;;;;;;;7.20;99.90;;;;;;5080488;27;19970;-81
2024/01/01 04:35:28;;;;;;;;;;;7.20;99.90;;;;;;5106474;27;19932;-82
2024/01/01 04:37:55;;;;;;;;;;;7.20;99.90;;;;;;5110133;27;19938;-82
2024/01/01 04:40:21;;;;;;;;;;;7.20;99.90;;;;;;5110429;27;19927;-81
2024/01/01 04:42:49;;;;;;;;;;;7.20;99.90;;;;;;5094923;27;19930;-82
2024/01/01 04:45:15;;;;;;;;;;;7.20;99.90;;;;;;5109631;27;19976;-82
2024/01/01 04:47:41;;;;;;;;;;;7.20;99.90;;;;;;5093043;27;19935;-82
2024/01/01 04:50:07;;;;;;;;;;;7.20;99.90;;;;;;5096893;27;19928;-82
2024/01/01 04:52:33;;;;;;;;;;;7.10;99.90;;;;;;5106542;27;19927;-81
2024/01/01 04:54:58;;;;;;;;;;;7.20;99.90;;;;;;5094592;27;19929;-83
2024/01/01 04:57:24;;;;;;;;;;;7.20;99.90;;;;;;5087964;27;20394;-83
2024/01/01 04:59:49;;;;;;;;;;;7.20;99.90;;;;;;5106807;27;19927;-84
2024/01/01 05:02:15;;;;;;;;;;;7.30;99.90;;;;;;5093827;27;20807;-83
2024/01/01 05:04:41;;;;;;;;;;;7.40;99.90;;;;;;5081652;27;20018;-83
2024/01/01 05:07:06;;;;;;;;;;;7.50;99.90;;;;;;5106729;27;19934;-81
2024/01/01 05:09:32;;;;;;;;;;;7.50;99.90;;;;;;5115537;27;20012;-84
2024/01/01 05:11:58;;;;;;;;;;;7.50;99.90;;;;;;5127281;27;19984;-82
2024/01/01 05:14:24;;;;;;;;;;;7.50;99.90;;;;;;5104605;27;19996;-82
2024/01/01 05:16:50;;;;;;;;;;;7.50;99.90;;;;;;5086570;27;19935;-82
2024/01/01 05:19:16;;;;;;;;;;;7.50;99.90;;;;;;5086042;27;19923;-81
2024/01/01 05:21:41;;;;;;;;;;;7.50;99.90;;;;;;5082162;27;19931;-83
2024/01/01 05:24:07;;;;;;;;;;;7.60;99.90;;;;;;5098950;27;20012;-81
2024/01/01 05:26:33;;;;;;;;;;;7.60;99.90;;;;;;5091874;27;19927;-81
2024/01/01 05:28:59;;;;;;;;;;;7.60;99.90;;;;;;5112357;27;19927;-82
2024/01/01 05:31:24;;;;;;;;;;;7.60;99.90;;;;;;5089574;27;20285;-81
2024/01/01 05:33:50;;;;;;;;;;;7.70;99.90;;;;;;5090314;27;20464;-81
2024/01/01 05:36:15;;;;;;;;;;;7.70;99.90;;;;;;5122704;27;19924;-82
2024/01/01 05:38:41;;;;;;;;;;;7.70;99.90;;;;;;5087159;27;20460;-82
2024/01/01 05:41:09;;;;;;;;;;;7.60;99.90;;;;;;5094337;27;19935;-80
2024/01/01 05:43:35;;;;;;;;;;;7.50;99.90;;;;;;5094608;27;19927;-82
2024/01/01 05:46:00;;;;;;;;;;;7.50;99.90;;;;;;5088592;27;20317;-82
2024/01/01 05:48:26;;;;;;;;;;;7.50;99.90;;;;;;5104155;27;20761;-82
2024/01/01 05:50:52;;;;;;;;;;;7.50;99.90;;;;;;5106604;27;19933;-82
2024/01/01 05:53:17;;;;;;;;;;;7.50;99.90;;;;;;5110010;27;19953;-82
2024/01/01 05:55:43;;;;;;;;;;;7.50;99.90;;;;;;5107159;27;20305;-84
2024/01/01 05:58:09;;;;;;;;;;;7.60;99.90;;;;;;5103104;27;19984;-84
2024/01/01 06:00:36;;;;;;;;;;;7.60;99.90;;;;;;5093055;27;19930;-83
2024/01/01 06:03:04;;;;;;;;;;;7.60;99.90;;;;;;5102820;27;19935;-83
2024/01/01 06:05:33;;;;;;;;;;;8.40;99.90;;;;;;5106565;27;19931;-81
2024/01/01 06:08:00;;;;;;;;;;;7.40;99.90;;;;;;5109113;27;20370;-83
2024/01/01 06:10:26;;;;;;;;;;;7.20;99.90;;;;;;5107283;27;19951;-81
2024/01/01 06:12:52;;;;;;;;;;;7.10;99.90;;;;;;5111356;27;19931;-82
2024/01/01 06:15:17;;;;;;;;;;;7.00;99.90;;;;;;5095910;27;20023;-81
2024/01/01 06:17:43;;;;;;;;;;;6.90;99.90;;;;;;5109773;27;19931;-82
2024/01/01 06:20:09;;;;;;;;;;;6.80;99.90;;;;;;5099482;27;19945;-81
2024/01/01 06:22:34;;;;;;;;;;;6.70;99.90;;;;;;5095462;27;20641;-83
2024/01/01 06:25:00;;;;;;;;;;;6.70;99.90;;;;;;5104925;27;20276;-83
2024/01/01 06:27:26;;;;;;;;;;;6.60;99.90;;;;;;5090492;27;20007;-82
2024/01/01 06:29:51;;;;;;;;;;;6.60;99.90;;;;;;5111826;27;19931;-81
2024/01/01 06:32:17;;;;;;;;;;;6.60;99.90;;;;;;5102148;27;19927;-82
2024/01/01 06:34:45;;;;;;;;;;;6.60;99.90;;;;;;5103399;27;20010;-81
2024/01/01 06:37:12;;;;;;;;;;;6.60;99.90;;;;;;5111911;27;19927;-82
2024/01/01 06:39:38;;;;;;;;;;;6.60;99.90;;;;;;5081290;27;19931;-82
2024/01/01 06:42:03;;;;;;;;;;;6.70;99.90;;;;;;5096411;27;19932;-81
2024/01/01 06:44:29;;;;;;;;;;;6.60;99.90;;;;;;5091074;27;19934;-82
2024/01/01 06:46:54;;;;;;;;;;;6.60;99.90;;;;;;5097836;27;19975;-83
2024/01/01 06:49:20;;;;;;;;;;;6.70;99.90;;;;;;5089013;27;19927;-83
2024/01/01 06:51:50;;;;;;;;;;;6.70;99.90;;;;;;5102623;27;19947;-83
2024/01/01 06:54:16;;;;;;;;;;;6.70;99.90;;;;;;5101610;27;19930;-82
2024/01/01 06:56:42;;;;;;;;;;;6.70;99.90;;;;;;5094881;27;19956;-81
2024/01/01 06:59:08;;;;;;;;;;;6.80;99.90;;;;;;5094870;27;19927;-80
2024/01/01 07:01:33;;;;;;;;;;;6.80;99.90;;;;;;5104663;27;20822;-82
2024/01/01 07:03:59;;;;;;;;;;;6.90;99.90;;;;;;5090778;27;19932;-82
2024/01/01 07:06:25;;;;;;;;;;;6.90;99.90;;;;;;5103388;27;19931;-81
2024/01/01 07:08:50;;;;;;;;;;;7.00;99.90;;;;;;5109917;27;20760;-82
2024/01/01 07:11:16;;;;;;;;;;;7.00;99.90;;;;;;5091006;27;20007;-84
2024/01/01 07:13:42;;;;;;;;;;;7.10;99.90;;;;;;5090720;27;19933;-83
2024/01/01 07:16:09;;;;;;;;;;;7.20;99.90;;;;;;5107314;27;19927;-82
2024/01/01 07:18:35;;;;;;;;;;;7.20;99.90;;;;;;5097474;27;19931;-82
2024/01/01 07:21:01;;;;;;;;;;;7.30;99.90;;;;;;5108993;27;19950;-83
2024/01/01 07:23:26;;;;;;;;;;;7.30;99.90;;;;;;5088635;27;20808;-82
2024/01/01 07:25:52;;;;;;;;;;;7.40;99.90;;;;;;5101405;27;19931;-85
2024/01/01 07:28:18;;;;;;;;;;;7.40;99.90;;;;;;5102374;27;19980;-83
2024/01/01 07:30:43;;;;;;;;;;;7.40;99.90;;;;;;5103843;27;19938;-84
2024/01/01 07:33:09;;;;;;;;;;;7.40;99.90;;;;;;5111862;27;19975;-81
2024/01/01 07:35:40;;;;;;;;;;;7.40;99.90;;;;;;5086282;27;20311;-82
2024/01/01 07:38:07;;;;;;;;;;;7.40;99.90;;;;;;5093604;27;19931;-82
2024/01/01 07:40:32;;;;;;;;;;;7.40;99.90;;;;;;5102479;27;19938;-82
2024/01/01 07:42:59;;;;;;;;;;;7.50;99.90;;;;;;5111042;27;19950;-82
2024/01/01 07:45:24;;;;;;;;;;;7.50;99.90;;;;;;5086259;27;19927;-84
2024/01/01 07:47:55;;;;;;;;;;;7.60;99.90;;;;;;5103676;27;19934;-83
2024/01/01 07:50:21;;;;;;;;;;;7.60;99.90;;;;;;5104304;27;19923;-84
2024/01/01 07:52:47;;;;;;;;;;;7.60;99.90;;;;;;5086550;27;19928;-84
2024/01/01 07:55:13;;;;;;;;;;;7.60;99.90;;;;;;5108443;27;19965;-83
2024/01/01 07:57:39;;;;;;;;;;;7.60;99.90;;;;;;5095196;27;20025;-83
2024/01/01 08:00:06;;;;;;;;;;;7.50;99.90;;;;;;5073335;27;20489;-82
2024/01/01 08:02:32;;;;;;;;;;;7.40;99.90;;;;;;5104808;27;19930;-83
2024/01/01 08:04:59;;;;;;;;;;;7.30;99.90;;;;;;5104507;27;19923;-80
2024/01/01 08:07:24;;;;;;;;;;;7.20;99.90;;;;;;5081616;27;20038;-81
2024/01/01 08:09:50;;;;;;;;;;;7.20;99.90;;;;;;5073237;27;19966;-83
2024/01/01 08:12:16;;;;;;;;;;;7.20;99.90;;;;;;5074158;27;21630;-80
2024/01/01 08:14:41;;;;;;;;;;;7.20;99.90;;;;;;5093829;27;19927;-83
2024/01/01 08:17:08;;;;;;;;;;;7.20;99.90;;;;;;5100107;27;19930;-80
2024/01/01 08:19:34;;;;;;;;;;;7.20;99.90;;;;;;5101458;27;19931;-81
2024/01/01 08:22:00;;;;;;;;;;;7.20;99.90;;;;;;5099465;27;20026;-81
2024/01/01 08:24:28;;;;;;;;;;;7.30;99.90;;;;;;5102682;27;20347;-82
2024/01/01 08:26:54;;;;;;;;;;;7.30;99.90;;;;;;5075369;27;19937;-82
2024/01/01 08:29:20;;;;;;;;;;;7.30;99.90;;;;;;5089083;27;19927;-81
2024/01/01 08:31:45;;;;;;;;;;;7.40;99.90;;;;;;5092456;27;20780;-82
2024/01/01 08:34:14;;;;;;;;;;;7.40;99.90;;;;;;5095730;27;19932;-81
2024/01/01 08:36:39;;;;;;;;;;;7.40;99.90;;;;;;5102933;27;19952;-82
2024/01/01 08:39:05;;;;;;;;;;;8.70;99.90;;;;;;5088540;27;19931;-82
2024/01/01 08:41:31;;;;;;;;;;;7.40;99.90;;;;;;5099866;27;19978;-81
2024/01/01 08:43:57;;;;;;;;;;;7.40;99.90;;;;;;5098744;27;19927;-81
2024/01/01 08:46:24;;;;;;;;;;;7.50;99.90;;;;;;5106215;27;19931;-81
2024/01/01 08:48:51;;;;;;;;;;;7.50;99.90;;;;;;5100118;27;19927;-81
2024/01/01 08:51:16;;;;;;;;;;;7.50;99.90;;;;;;5104208;27;20377;-82
2024/01/01 08:53:42;;;;;;;;;;;7.50;99.90;;;;;;5085943;27;19934;-81
2024/01/01 08:56:08;;;;;;;;;;;7.60;99.90;;;;;;5092693;27;19931;-80
2024/01/01 08:58:33;;;;;;;;;;;7.50;99.90;;;;;;5101962;27;19927;-82
2024/01/01 09:00:59;;;;;;;;;;;7.40;99.90;;;;;;5098013;27;19924;-83
2024/01/01 09:03:27;;;;;;;;;;;7.30;99.90;;;;;;5093856;27;19928;-84
2024/01/01 09:05:54;;;;;;;;;;;7.40;99.90;;;;;;5109397;27;19941;-80
2024/01/01 09:08:20;;;;;;;;;;;7.40;99.90;;;;;;5094550;27;20045;-83
2024/01/01 09:10:45;;;;;;;;;;;7.50;99.90;;;;;;5102112;27;19927;-82
2024/01/01 09:13:11;;;;;;;;;;;7.50;99.90;;;;;;5083802;27;19981;-80
2024/01/01 09:15:37;;;;;;;;;;;7.50;99.90;;;;;;5099568;27;20496;-81
2024/01/01 09:18:03;;;;;;;;;;;7.50;99.90;;;;;;5087204;27;20037;-81
2024/01/01 09:20:29;;;;;;;;;;;7.60;99.90;;;;;;5111246;27;20053;-82
2024/01/01 09:22:57;;;;;;;;;;;7.60;99.90;;;;;;5103389;27;19928;-82
2024/01/01 09:25:23;;;;;;;;;;;7.60;99.90;;;;;;5074518;27;20032;-83
2024/01/01 09:27:49;;;;;;;;;;;7.70;99.90;;;;;;5093761;27;20373;-82
2024/01/01 09:30:15;;;;;;;;;;;7.70;99.90;;;;;;5092576;27;19966;-81
2024/01/01 09:32:40;;;;;;;;;;;7.70;99.90;;;;;;5096446;27;19955;-81
2024/01/01 09:35:06;;;;;;;;;;;7.80;99.90;;;;;;5087147;27;20298;-80
2024/01/01 09:37:32;;;;;;;;;;;7.80;99.90;;;;;;5106763;27;19931;-82
2024/01/01 09:39:57;;;;;;;;;;;7.80;99.90;;;;;;5089356;27;19927;-82
2024/01/01 09:42:23;;;;;;;;;;;7.80;99.90;;;;;;5110078;27;20935;-80
2024/01/01 09:44:53;;;;;;;;;;;7.90;99.90;;;;;;5106502;27;20297;-80
2024/01/01 09:47:19;;;;;;;;;;;7.90;99.90;;;;;;5100363;27;19977;-81
2024/01/01 09:49:44;;;;;;;;;;;7.90;99.90;;;;;;5088445;27;20013;-81
2024/01/01 09:52:16;;;;;;;;;;;8.00;99.90;;;;;;5103309;27;19927;-81
2024/01/01 09:54:42;;;;;;;;;;;8.00;99.90;;;;;;5098598;27;20381;-81
2024/01/01 09:57:08;;;;;;;;;;;8.10;99.90;;;;;;5127207;27;19933;-79
2024/01/01 09:59:34;;;;;;;;;;;8.10;99.90;;;;;;5111061;27;19927;-80
2024/01/01 10:02:04;;;;;;;;;;;8.10;99.90;;;;;;5090087;27;19931;-81
2024/01/01 10:04:30;;;;;;;;;;;8.10;99.90;;;;;;5104421;27;20299;-82
2024/01/01 10:06:58;;;;;;;;;;;8.10;99.90;;;;;;5101699;27;19931;-81
2024/01/01 10:09:24;;;;;;;;;;;8.20;99.90;;;;;;5093871;27;20010;-82
2024/01/01 10:11:50;;;;;;;;;;;8.20;99.90;;;;;;5116735;27;20014;-81
2024/01/01 10:14:15;;;;;;;;;;;8.10;99.90;;;;;;5113525;27;19929;-82
2024/01/01 10:16:41;;;;;;;;;;;8.20;99.90;;;;;;5115835;27;20008;-83
2024/01/01 10:19:08;;;;;;;;;;;8.20;99.90;;;;;;5082194;27;20033;-82
2024/01/01 10:21:38;;;;;;;;;;;8.20;99.90;;;;;;5109758;27;19948;-82
2024/01/01 10:24:21;;;;;;;;;;;8.20;99.90;;;;;;5111036;27;19935;-82
2024/01/01 10:26:47;;;;;;;;;;;8.20;99.90;;;;;;5110549;27;20015;-80
2024/01/01 10:29:14;;;;;;;;;;;8.20;99.90;;;;;;5113184;27;19928;-81
2024/01/01 10:31:47;;;;;;;;;;;8.20;99.90;;;;;;5088812;27;19927;-82
2024/01/01 10:34:13;;;;;;;;;;;8.20;99.90;;;;;;5092784;27;19927;-81
2024/01/01 10:36:42;;;;;;;;;;;8.20;99.90;;;;;;5112938;27;19927;-83
2024/01/01 10:39:11;;;;;;;;;;;8.20;99.90;;;;;;5096219;27;19923;-81
2024/01/01 10:41:37;;;;;;;;;;;8.20;99.90;;;;;;5088990;27;20385;-82
2024/01/01 10:44:03;;;;;;;;;;;8.20;99.90;;;;;;5100451;27;19934;-83
2024/01/01 10:46:29;;;;;;;;;;;8.20;99.90;;;;;;5106672;27;19927;-83
2024/01/01 10:48:55;;;;;;;;;;;8.20;99.90;;;;;;5107085;27;20025;-81
2024/01/01 10:51:28;;;;;;;;;;;8.20;99.90;;;;;;5093298;27;20018;-81
2024/01/01 10:53:53;;;;;;;;;;;8.20;99.90;;;;;;5107359;27;19923;-82
2024/01/01 10:56:25;;;;;;;;;;;8.20;99.90;;;;;;5104105;27;20330;-82
2024/01/01 10:59:02;;;;;;;;;;;8.10;99.90;;;;;;5102670;27;20805;-81
2024/01/01 11:01:28;;;;;;;;;;;8.20;99.90;;;;;;5091951;27;19935;-82
2024/01/01 11:03:54;;;;;;;;;;;8.20;99.90;;;;;;5083187;27;19971;-81
2024/01/01 11:06:20;;;;;;;;;;;8.20;99.90;;;;;;5106271;27;20295;-81
2024/01/01 11:08:45;;;;;;;;;;;8.20;99.90;;;;;;5087245;27;20029;-80
2024/01/01 11:11:21;;;;;;;;;;;8.10;99.90;;;;;;5093164;27;19988;-82
2024/01/01 11:13:51;;;;;;;;;;;8.20;99.90;;;;;;5101337;27;21817;-81
2024/01/01 11:16:16;;;;;;;;;;;8.10;99.90;;;;;;5100667;27;19950;-81
2024/01/01 11:18:44;;;;;;;;;;;8.20;99.90;;;;;;5104086;27;20413;-79
2024/01/01 11:21:24;;;;;;;;;;;8.20;99.90;;;;;;5105574;27;19928;-81
2024/01/01 11:23:51;;;;;;;;;;;8.20;99.90;;;;;;5103240;27;20013;-80
2024/01/01 11:26:23;;;;;;;;;;;8.20;99.90;;;;;;5090062;27;19927;-81
2024/01/01 11:28:49;;;;;;;;;;;8.20;99.90;;;;;;5089592;27;19927;-81
2024/01/01 11:31:15;;;;;;;;;;;8.20;99.90;;;;;;5098649;27;19931;-80
2024/01/01 11:33:41;;;;;;;;;;;8.20;99.90;;;;;;5086860;27;19927;-79
2024/01/01 11:36:09;;;;;;;;;;;8.20;99.90;;;;;;5099757;27;19919;-78
2024/01/01 11:38:40;;;;;;;;;;;9.50;99.90;;;;;;5092351;27;23284;-80
2024/01/01 11:41:09;;;;;;;;;;;8.20;99.90;;;;;;5102009;27;19927;-80
2024/01/01 11:43:35;;;;;;;;;;;8.20;99.90;;;;;;5076623;27;19927;-80
2024/01/01 11:46:02;;;;;;;;;;;8.20;99.90;;;;;;5102808;27;20416;-80
2024/01/01 11:48:28;;;;;;;;;;;7.80;99.90;;;;;;5094733;27;20010;-79
2024/01/01 11:50:59;;;;;;;;;;;8.20;99.90;;;;;;5097168;27;20022;-81
2024/01/01 11:53:24;;;;;;;;;;;8.20;99.90;;;;;;5009773;28;19939;-80
2024/01/01 11:55:50;;;;;;;;;;;8.20;99.90;;;;;;5052590;28;19928;-80
2024/01/01 11:58:17;;;;;;;;;;;8.20;99.90;;;;;;5051257;28;19928;-81
2024/01/01 12:00:43;;;;;;;;;;;8.20;99.90;;;;;;5067824;28;19949;-80
2024/01/01 12:03:09;;;;;;;;;;;8.20;99.90;;;;;;5065594;28;19935;-81
2024/01/01 12:05:34;;;;;;;;;;;8.20;99.90;;;;;;5079334;28;20459;-80
2024/01/01 12:08:10;;;;;;;;;;;8.20;99.90;;;;;;5051063;28;19927;-80
2024/01/01 12:10:36;;;;;;;;;;;8.20;99.90;;;;;;5069766;28;19992;-81
2024/01/01 12:13:03;;;;;;;;;;;8.20;99.90;;;;;;5082023;28;19941;-79
2024/01/01 12:15:31;;;;;;;;;;;8.20;99.90;;;;;;5060956;28;19924;-80
2024/01/01 12:18:03;;;;;;;;;;;8.20;99.90;;;;;;5069278;28;19927;-81
2024/01/01 12:20:29;;;;;;;;;;;8.20;99.90;;;;;;5070389;28;19932;-81
2024/01/01 12:23:10;;;;;;;;;;;8.20;99.90;;;;;;5064586;28;20010;-80
2024/01/01 12:25:36;;;;;;;;;;;8.20;99.90;;;;;;5084600;28;20619;-81
2024/01/01 12:28:05;;;;;;;;;;;8.20;99.90;;;;;;5067171;28;19932;-80
2024/01/01 12:30:32;;;;;;;;;;;8.20;99.90;;;;;;5065799;28;19932;-79
2024/01/01 12:32:57;;;;;;;;;;;8.20;99.90;;;;;;5065655;28;19932;-79
2024/01/01 12:35:29;;;;;;;;;;;8.20;99.90;;;;;;5068878;28;20413;-80
2024/01/01 12:37:54;;;;;;;;;;;8.20;99.90;;;;;;5088489;27;19932;-80
2024/01/01 12:40:20;;;;;;;;;;;6.90;99.90;;;;;;5067114;28;19939;-80
2024/01/01 12:42:47;;;;;;;;;;;8.10;99.90;;;;;;5052338;28;19931;-81
2024/01/01 12:45:13;;;;;;;;;;;8.10;99.90;;;;;;5054328;28;19927;-80
2024/01/01 12:47:39;;;;;;;;;;;8.10;99.90;;;;;;5072798;28;20271;-80
2024/01/01 12:50:05;;;;;;;;;;;8.10;99.90;;;;;;5091050;27;20034;-81
2024/01/01 12:52:31;;;;;;;;;;;8.10;99.90;;;;;;5071638;28;19943;-81
2024/01/01 12:54:56;;;;;;;;;;;8.10;99.90;;;;;;5055937;28;20522;-81
2024/01/01 12:57:22;;;;;;;;;;;8.00;99.90;;;;;;5085711;27;20429;-82
2024/01/01 12:59:48;;;;;;;;;;;8.00;99.90;;;;;;5051792;28;19976;-80
2024/01/01 13:02:13;;;;;;;;;;;8.00;99.90;;;;;;5070211;28;20397;-82
2024/01/01 13:04:39;;;;;;;;;;;7.90;99.90;;;;;;5052920;28;19928;-81
2024/01/01 13:07:05;;;;;;;;;;;7.80;99.90;;;;;;5048278;28;19935;-83
2024/01/01 13:09:30;;;;;;;;;;;7.80;99.90;;;;;;5070957;28;19927;-80
2024/01/01 13:11:56;;;;;;;;;;;7.70;99.90;;;;;;5052762;28;20218;-83
2024/01/01 13:14:22;;;;;;;;;;;7.70;99.90;;;;;;5069039;28;19928;-82
2024/01/01 13:16:48;;;;;;;;;;;7.70;99.90;;;;;;5072759;28;19928;-83
2024/01/01 13:19:14;;;;;;;;;;;7.70;99.90;;;;;;5054997;28;19928;-80
2024/01/01 13:21:40;;;;;;;;;;;7.70;99.90;;;;;;5071705;28;20394;-81
2024/01/01 13:24:07;;;;;;;;;;;7.30;99.90;;;;;;5072142;28;19928;-80
2024/01/01 13:26:35;;;;;;;;;;;7.70;99.90;;;;;;5073032;28;19928;-81
2024/01/01 13:29:02;;;;;;;;;;;7.70;99.90;;;;;;5053954;28;19920;-80
2024/01/01 13:31:27;;;;;;;;;;;7.70;99.90;;;;;;5088699;28;19927;-81
2024/01/01 13:33:54;;;;;;;;;;;7.70;99.90;;;;;;5088394;28;20351;-80
2024/01/01 13:36:21;;;;;;;;;;;7.70;99.90;;;;;;5068658;28;19977;-80
2024/01/01 13:38:46;;;;;;;;;;;7.70;99.90;;;;;;5072676;28;20402;-80
2024/01/01 13:41:12;;;;;;;;;;;7.80;99.90;;;;;;5068904;28;19931;-81
2024/01/01 13:43:41;;;;;;;;;;;7.80;99.90;;;;;;5089358;27;19932;-81
2024/01/01 13:46:07;;;;;;;;;;;7.80;99.90;;;;;;5072748;28;19957;-81
2024/01/01 13:48:32;;;;;;;;;;;7.70;99.90;;;;;;5054696;28;20534;-81
2024/01/01 13:50:58;;;;;;;;;;;7.70;99.90;;;;;;5071060;28;19932;-81
2024/01/01 13:53:24;;;;;;;;;;;7.60;99.90;;;;;;5088925;27;20047;-81
2024/01/01 13:55:50;;;;;;;;;;;7.60;99.90;;;;;;5055729;28;19928;-82
2024/01/01 13:58:16;;;;;;;;;;;7.60;99.90;;;;;;5088043;27;19932;-81
2024/01/01 14:00:42;;;;;;;;;;;7.60;99.90;;;;;;5081710;28;19939;-80
2024/01/01 14:03:14;;;;;;;;;;;7.60;99.90;;;;;;5055090;28;19928;-81
2024/01/01 14:05:41;;;;;;;;;;;7.70;99.90;;;;;;5057151;28;20113;-80
2024/01/01 14:08:07;;;;;;;;;;;7.70;99.90;;;;;;5092952;28;19927;-80
2024/01/01 14:10:32;;;;;;;;;;;7.80;99.90;;;;;;5055968;28;19923;-81
2024/01/01 14:12:58;;;;;;;;;;;7.80;99.90;;;;;;5065383;27;19927;-81
2024/01/01 14:15:24;;;;;;;;;;;7.80;99.90;;;;;;5077734;28;19934;-80
2024/01/01 14:17:51;;;;;;;;;;;7.80;99.90;;;;;;5058251;28;20159;-81
2024/01/01 14:20:18;;;;;;;;;;;7.80;99.90;;;;;;5061985;28;19924;-81
2024/01/01 14:22:47;;;;;;;;;;;7.70;99.90;;;;;;5077778;28;19923;-81
2024/01/01 14:25:13;;;;;;;;;;;7.80;99.90;;;;;;5079854;28;19928;-82